sensor_id;sensor_type;location;lat;lon;timestamp;pressure;altitude;pressure_sealevel;temperature;humidity
10668;BME280;5382;42.136;24.796;2022-07-23T00:01:29;99914.44;;;25.65;58.90
10668;BME280;5382;42.136;24.796;2022-07-23T00:03:56;99927.16;;;25.65;60.21
10668;BME280;5382;42.136;24.796;2022-07-23T00:06:23;99919.25;;;25.70;60.53
10668;BME280;5382;42.136;24.796;2022-07-23T00:08:50;99921.53;;;25.60;60.92
10668;BME280;5382;42.136;24.796;2022-07-23T00:11:17;99920.28;;;25.62;61.29
10668;BME280;5382;42.136;24.796;2022-07-23T00:13:44;99919.22;;;25.50;61.95
10668;BME280;5382;42.136;24.796;2022-07-23T00:16:11;99910.28;;;25.43;62.48
10668;BME280;5382;42.136;24.796;2022-07-23T00:18:39;99916.94;;;25.40;62.10
10668;BME280;5382;42.136;24.796;2022-07-23T00:21:07;99919.88;;;25.45;61.44
10668;BME280;5382;42.136;24.796;2022-07-23T00:23:34;99924.03;;;25.41;60.78
10668;BME280;5382;42.136;24.796;2022-07-23T00:26:00;99924.22;;;25.33;61.12
10668;BME280;5382;42.136;24.796;2022-07-23T00:28:27;99841.41;;;24.84;61.01
10668;BME280;5382;42.136;24.796;2022-07-23T00:30:54;99924.22;;;25.33;61.96
10668;BME280;5382;42.136;24.796;2022-07-23T00:33:21;99919.44;;;25.35;62.16
10668;BME280;5382;42.136;24.796;2022-07-23T00:35:49;99920.25;;;25.29;61.98
10668;BME280;5382;42.136;24.796;2022-07-23T00:38:16;99921.06;;;25.30;62.89
10668;BME280;5382;42.136;24.796;2022-07-23T00:40:43;99927.13;;;25.32;63.62
10668;BME280;5382;42.136;24.796;2022-07-23T00:43:10;99933.59;;;25.31;63.30
10668;BME280;5382;42.136;24.796;2022-07-23T00:45:36;99913.56;;;25.18;63.91
10668;BME280;5382;42.136;24.796;2022-07-23T00:48:04;99932.72;;;25.17;63.53
10668;BME280;5382;42.136;24.796;2022-07-23T00:50:30;99928.09;;;25.11;63.54
10668;BME280;5382;42.136;24.796;2022-07-23T00:52:59;99934.41;;;25.18;63.01
10668;BME280;5382;42.136;24.796;2022-07-23T00:55:26;99936.47;;;25.16;63.72
10668;BME280;5382;42.136;24.796;2022-07-23T00:57:53;99939.34;;;25.14;63.92
10668;BME280;5382;42.136;24.796;2022-07-23T01:00:21;99938.53;;;25.14;64.74
10668;BME280;5382;42.136;24.796;2022-07-23T01:02:48;99907.00;;;24.86;64.85
10668;BME280;5382;42.136;24.796;2022-07-23T01:05:16;99927.81;;;24.86;67.68
10668;BME280;5382;42.136;24.796;2022-07-23T01:07:47;99934.09;;;24.93;68.55
10668;BME280;5382;42.136;24.796;2022-07-23T01:10:15;99924.50;;;24.84;69.32
10668;BME280;5382;42.136;24.796;2022-07-23T01:12:58;99927.16;;;24.77;70.60
10668;BME280;5382;42.136;24.796;2022-07-23T01:15:25;99905.88;;;24.61;70.75
10668;BME280;5382;42.136;24.796;2022-07-23T01:17:52;99931.69;;;24.70;71.64
10668;BME280;5382;42.136;24.796;2022-07-23T01:20:19;99930.91;;;24.76;72.07
10668;BME280;5382;42.136;24.796;2022-07-23T01:22:48;99935.06;;;24.72;72.68
10668;BME280;5382;42.136;24.796;2022-07-23T01:25:15;99926.94;;;24.72;73.08
10668;BME280;5382;42.136;24.796;2022-07-23T01:27:42;99934.44;;;24.76;72.15
10668;BME280;5382;42.136;24.796;2022-07-23T01:30:10;99935.47;;;24.69;72.81
10668;BME280;5382;42.136;24.796;2022-07-23T01:32:37;99926.94;;;24.72;72.53
10668;BME280;5382;42.136;24.796;2022-07-23T01:35:05;99925.50;;;24.76;72.72
10668;BME280;5382;42.136;24.796;2022-07-23T01:37:32;99935.50;;;24.82;73.00
10668;BME280;5382;42.136;24.796;2022-07-23T01:40:00;99934.00;;;24.73;73.38
10668;BME280;5382;42.136;24.796;2022-07-23T01:42:27;99930.91;;;24.76;73.58
10668;BME280;5382;42.136;24.796;2022-07-23T01:44:54;99913.31;;;24.52;74.23
10668;BME280;5382;42.136;24.796;2022-07-23T01:47:21;99937.75;;;24.72;73.62
10668;BME280;5382;42.136;24.796;2022-07-23T01:49:47;99929.81;;;24.70;73.37
10668;BME280;5382;42.136;24.796;2022-07-23T01:52:14;99931.28;;;24.73;73.65
10668;BME280;5382;42.136;24.796;2022-07-23T01:54:42;99911.25;;;24.54;74.30
10668;BME280;5382;42.136;24.796;2022-07-23T01:57:10;99921.28;;;24.67;73.93
10668;BME280;5382;42.136;24.796;2022-07-23T01:59:37;99931.94;;;24.68;74.49
10668;BME280;5382;42.136;24.796;2022-07-23T02:02:05;99929.38;;;24.60;75.95
10668;BME280;5382;42.136;24.796;2022-07-23T02:04:31;99931.88;;;24.62;75.63
10668;BME280;5382;42.136;24.796;2022-07-23T02:07:00;99931.69;;;24.63;74.23
10668;BME280;5382;42.136;24.796;2022-07-23T02:09:27;99927.91;;;24.57;75.83
10668;BME280;5382;42.136;24.796;2022-07-23T02:11:54;99932.28;;;24.58;75.29
10668;BME280;5382;42.136;24.796;2022-07-23T02:14:22;99943.72;;;24.54;74.87
10668;BME280;5382;42.136;24.796;2022-07-23T02:16:49;99935.53;;;24.47;75.57
10668;BME280;5382;42.136;24.796;2022-07-23T02:19:16;99932.88;;;24.54;74.52
10668;BME280;5382;42.136;24.796;2022-07-23T02:21:43;99931.56;;;24.43;75.09
10668;BME280;5382;42.136;24.796;2022-07-23T02:24:10;99934.94;;;24.52;75.09
10668;BME280;5382;42.136;24.796;2022-07-23T02:26:37;99937.41;;;24.47;75.41
10668;BME280;5382;42.136;24.796;2022-07-23T02:29:04;99932.00;;;24.47;74.33
10668;BME280;5382;42.136;24.796;2022-07-23T02:31:33;99931.31;;;24.38;74.77
10668;BME280;5382;42.136;24.796;2022-07-23T02:34:00;99939.38;;;24.31;73.94
10668;BME280;5382;42.136;24.796;2022-07-23T02:36:27;99942.47;;;24.22;74.32
10668;BME280;5382;42.136;24.796;2022-07-23T02:38:54;99937.00;;;24.15;75.51
10668;BME280;5382;42.136;24.796;2022-07-23T02:41:21;99938.03;;;24.14;75.99
10668;BME280;5382;42.136;24.796;2022-07-23T02:43:47;99937.59;;;24.10;76.89
10668;BME280;5382;42.136;24.796;2022-07-23T02:46:14;99945.94;;;24.15;76.43
10668;BME280;5382;42.136;24.796;2022-07-23T02:48:43;99944.94;;;24.16;76.09
10668;BME280;5382;42.136;24.796;2022-07-23T02:51:09;99927.34;;;24.06;75.96
10668;BME280;5382;42.136;24.796;2022-07-23T02:53:36;99946.69;;;24.03;76.62
10668;BME280;5382;42.136;24.796;2022-07-23T02:56:03;99870.84;;;23.55;76.67
10668;BME280;5382;42.136;24.796;2022-07-23T02:58:30;99943.38;;;24.07;75.67
10668;BME280;5382;42.136;24.796;2022-07-23T03:00:57;99943.78;;;24.04;75.69
10668;BME280;5382;42.136;24.796;2022-07-23T03:03:24;99941.72;;;24.06;75.63
10668;BME280;5382;42.136;24.796;2022-07-23T03:05:52;99944.22;;;24.08;75.88
10668;BME280;5382;42.136;24.796;2022-07-23T03:08:19;99944.03;;;24.09;75.87
10668;BME280;5382;42.136;24.796;2022-07-23T03:10:45;99941.50;;;24.08;74.91
10668;BME280;5382;42.136;24.796;2022-07-23T03:13:12;99932.53;;;24.01;75.00
10668;BME280;5382;42.136;24.796;2022-07-23T03:15:39;99949.63;;;24.08;74.43
10668;BME280;5382;42.136;24.796;2022-07-23T03:18:06;99944.22;;;24.08;74.51
10668;BME280;5382;42.136;24.796;2022-07-23T03:20:33;99947.16;;;24.13;74.34
10668;BME280;5382;42.136;24.796;2022-07-23T03:23:01;99951.69;;;24.06;74.81
10668;BME280;5382;42.136;24.796;2022-07-23T03:25:28;99959.22;;;24.10;74.86
10668;BME280;5382;42.136;24.796;2022-07-23T03:27:55;99952.22;;;24.23;75.18
10668;BME280;5382;42.136;24.796;2022-07-23T03:30:21;99947.91;;;24.28;73.69
10668;BME280;5382;42.136;24.796;2022-07-23T03:32:48;99943.06;;;24.24;73.68
10668;BME280;5382;42.136;24.796;2022-07-23T03:35:15;99959.53;;;24.29;73.49
10668;BME280;5382;42.136;24.796;2022-07-23T03:37:42;99960.59;;;24.28;74.04
10668;BME280;5382;42.136;24.796;2022-07-23T03:40:11;99962.00;;;24.24;74.19
10668;BME280;5382;42.136;24.796;2022-07-23T03:42:38;99957.34;;;24.11;74.67
10668;BME280;5382;42.136;24.796;2022-07-23T03:45:07;99958.19;;;24.11;74.69
10668;BME280;5382;42.136;24.796;2022-07-23T03:47:34;99962.63;;;24.19;75.05
10668;BME280;5382;42.136;24.796;2022-07-23T03:50:01;99960.75;;;24.20;74.94
10668;BME280;5382;42.136;24.796;2022-07-23T03:52:28;99965.66;;;24.09;75.38
10668;BME280;5382;42.136;24.796;2022-07-23T03:54:54;99962.16;;;24.15;75.41
10668;BME280;5382;42.136;24.796;2022-07-23T03:57:23;99959.06;;;24.19;74.57
10668;BME280;5382;42.136;24.796;2022-07-23T03:59:49;99963.00;;;24.16;74.80
10668;BME280;5382;42.136;24.796;2022-07-23T04:02:16;99955.34;;;24.20;74.74
10668;BME280;5382;42.136;24.796;2022-07-23T04:04:43;99944.28;;;24.14;74.61
10668;BME280;5382;42.136;24.796;2022-07-23T04:07:10;99962.31;;;24.35;72.60
10668;BME280;5382;42.136;24.796;2022-07-23T04:09:37;99965.09;;;24.21;72.99
10668;BME280;5382;42.136;24.796;2022-07-23T04:12:06;99955.50;;;24.11;73.28
10668;BME280;5382;42.136;24.796;2022-07-23T04:14:34;99968.47;;;24.23;72.83
10668;BME280;5382;42.136;24.796;2022-07-23T04:17:01;99967.66;;;24.29;73.38
10668;BME280;5382;42.136;24.796;2022-07-23T04:19:28;99980.59;;;24.33;72.87
10668;BME280;5382;42.136;24.796;2022-07-23T04:21:55;99974.34;;;24.33;72.23
10668;BME280;5382;42.136;24.796;2022-07-23T04:24:23;99977.84;;;24.27;71.52
10668;BME280;5382;42.136;24.796;2022-07-23T04:26:49;99981.81;;;24.31;71.65
10668;BME280;5382;42.136;24.796;2022-07-23T04:29:16;99967.88;;;24.27;71.69
10668;BME280;5382;42.136;24.796;2022-07-23T04:31:44;99972.56;;;24.19;72.63
10668;BME280;5382;42.136;24.796;2022-07-23T04:34:11;99973.44;;;24.19;72.37
10668;BME280;5382;42.136;24.796;2022-07-23T04:36:38;99972.78;;;24.17;72.33
10668;BME280;5382;42.136;24.796;2022-07-23T04:39:05;99975.53;;;24.24;72.57
10668;BME280;5382;42.136;24.796;2022-07-23T04:41:32;99952.97;;;24.10;71.86
10668;BME280;5382;42.136;24.796;2022-07-23T04:43:59;99969.94;;;24.25;72.16
10668;BME280;5382;42.136;24.796;2022-07-23T04:46:26;99977.25;;;24.31;71.07
10668;BME280;5382;42.136;24.796;2022-07-23T04:48:54;99981.81;;;24.31;71.24
10668;BME280;5382;42.136;24.796;2022-07-23T04:51:21;99983.50;;;24.32;71.65
10668;BME280;5382;42.136;24.796;2022-07-23T04:53:48;99977.66;;;24.28;71.74
10668;BME280;5382;42.136;24.796;2022-07-23T04:56:16;99974.69;;;24.23;71.59
10668;BME280;5382;42.136;24.796;2022-07-23T04:58:42;99987.88;;;24.33;71.16
10668;BME280;5382;42.136;24.796;2022-07-23T05:01:09;99985.16;;;24.33;70.55
10668;BME280;5382;42.136;24.796;2022-07-23T05:03:36;99985.00;;;24.41;70.24
10668;BME280;5382;42.136;24.796;2022-07-23T05:06:04;99983.34;;;24.40;70.10
10668;BME280;5382;42.136;24.796;2022-07-23T05:08:31;99962.72;;;24.39;70.79
10668;BME280;5382;42.136;24.796;2022-07-23T05:10:58;99978.69;;;24.55;70.36
10668;BME280;5382;42.136;24.796;2022-07-23T05:13:25;99980.59;;;24.62;70.14
10668;BME280;5382;42.136;24.796;2022-07-23T05:15:52;99984.19;;;24.75;69.23
10668;BME280;5382;42.136;24.796;2022-07-23T05:18:19;99983.63;;;24.87;68.96
10668;BME280;5382;42.136;24.796;2022-07-23T05:20:45;99984.28;;;24.95;69.10
10668;BME280;5382;42.136;24.796;2022-07-23T05:23:14;99941.09;;;24.74;68.25
10668;BME280;5382;42.136;24.796;2022-07-23T05:25:41;99978.50;;;25.12;68.84
10668;BME280;5382;42.136;24.796;2022-07-23T05:28:08;99971.84;;;25.14;67.49
10668;BME280;5382;42.136;24.796;2022-07-23T05:30:34;99959.16;;;25.15;67.22
10668;BME280;5382;42.136;24.796;2022-07-23T05:33:01;99928.44;;;24.81;67.46
10668;BME280;5382;42.136;24.796;2022-07-23T05:35:28;99958.16;;;25.16;66.35
10668;BME280;5382;42.136;24.796;2022-07-23T05:37:55;99941.63;;;25.11;66.99
10668;BME280;5382;42.136;24.796;2022-07-23T05:40:23;99973.41;;;25.37;65.01
10668;BME280;5382;42.136;24.796;2022-07-23T05:42:50;99975.47;;;25.35;64.91
10668;BME280;5382;42.136;24.796;2022-07-23T05:45:17;99963.38;;;25.37;65.77
10668;BME280;5382;42.136;24.796;2022-07-23T05:47:45;99974.25;;;25.44;65.58
10668;BME280;5382;42.136;24.796;2022-07-23T05:50:13;99966.97;;;25.44;65.21
10668;BME280;5382;42.136;24.796;2022-07-23T05:52:40;99957.75;;;25.32;65.50
10668;BME280;5382;42.136;24.796;2022-07-23T05:55:08;99933.78;;;25.29;63.87
10668;BME280;5382;42.136;24.796;2022-07-23T05:57:37;99977.22;;;25.69;64.94
10668;BME280;5382;42.136;24.796;2022-07-23T06:00:05;99969.91;;;25.76;64.37
10668;BME280;5382;42.136;24.796;2022-07-23T06:02:33;99971.78;;;25.82;63.81
10668;BME280;5382;42.136;24.796;2022-07-23T06:04:59;99973.91;;;25.87;63.39
10668;BME280;5382;42.136;24.796;2022-07-23T06:07:26;99976.19;;;25.97;63.58
10668;BME280;5382;42.136;24.796;2022-07-23T06:09:53;99970.78;;;25.97;63.76
10668;BME280;5382;42.136;24.796;2022-07-23T06:12:20;99970.38;;;26.00;63.74
10668;BME280;5382;42.136;24.796;2022-07-23T06:14:49;99947.84;;;25.86;64.21
10668;BME280;5382;42.136;24.796;2022-07-23T06:17:17;99974.94;;;25.99;64.86
10668;BME280;5382;42.136;24.796;2022-07-23T06:19:44;99982.06;;;26.00;63.76
10668;BME280;5382;42.136;24.796;2022-07-23T06:22:11;99967.44;;;26.01;64.60
10668;BME280;5382;42.136;24.796;2022-07-23T06:24:38;99964.31;;;26.11;64.39
10668;BME280;5382;42.136;24.796;2022-07-23T06:27:05;99971.59;;;26.24;63.99
10668;BME280;5382;42.136;24.796;2022-07-23T06:29:32;99969.06;;;26.36;64.43
10668;BME280;5382;42.136;24.796;2022-07-23T06:32:00;99971.56;;;26.44;63.89
10668;BME280;5382;42.136;24.796;2022-07-23T06:34:27;99969.66;;;26.58;62.68
10668;BME280;5382;42.136;24.796;2022-07-23T06:36:53;99963.19;;;26.65;64.04
10668;BME280;5382;42.136;24.796;2022-07-23T06:39:20;99961.13;;;26.54;63.86
10668;BME280;5382;42.136;24.796;2022-07-23T06:41:47;99954.44;;;26.57;64.23
10668;BME280;5382;42.136;24.796;2022-07-23T06:44:14;99966.47;;;26.81;63.09
10668;BME280;5382;42.136;24.796;2022-07-23T06:46:41;99971.44;;;26.90;61.68
10668;BME280;5382;42.136;24.796;2022-07-23T06:49:09;99966.59;;;26.92;61.97
10668;BME280;5382;42.136;24.796;2022-07-23T06:51:36;99958.00;;;27.02;61.61
10668;BME280;5382;42.136;24.796;2022-07-23T06:54:03;99947.28;;;27.14;60.33
10668;BME280;5382;42.136;24.796;2022-07-23T06:56:30;99906.72;;;26.81;60.02
10668;BME280;5382;42.136;24.796;2022-07-23T06:58:57;99952.47;;;27.29;60.47
10668;BME280;5382;42.136;24.796;2022-07-23T07:01:24;99948.25;;;27.33;59.44
10668;BME280;5382;42.136;24.796;2022-07-23T07:03:51;99954.03;;;27.43;59.76
10668;BME280;5382;42.136;24.796;2022-07-23T07:06:19;99937.91;;;27.48;60.03
10668;BME280;5382;42.136;24.796;2022-07-23T07:08:46;99942.25;;;27.56;59.58
10668;BME280;5382;42.136;24.796;2022-07-23T07:11:15;99950.53;;;27.68;58.74
10668;BME280;5382;42.136;24.796;2022-07-23T07:13:42;99941.66;;;27.79;57.65
10668;BME280;5382;42.136;24.796;2022-07-23T07:16:08;99931.13;;;27.89;56.83
10668;BME280;5382;42.136;24.796;2022-07-23T07:18:35;99937.50;;;28.01;56.71
10668;BME280;5382;42.136;24.796;2022-07-23T07:21:02;99927.22;;;28.03;56.54
10668;BME280;5382;42.136;24.796;2022-07-23T07:23:30;99932.91;;;28.20;55.45
10668;BME280;5382;42.136;24.796;2022-07-23T07:25:57;99921.72;;;28.28;54.83
10668;BME280;5382;42.136;24.796;2022-07-23T07:28:24;99921.22;;;28.38;53.94
10668;BME280;5382;42.136;24.796;2022-07-23T07:30:51;99927.97;;;28.54;53.19
10668;BME280;5382;42.136;24.796;2022-07-23T07:33:18;99924.09;;;28.62;53.46
10668;BME280;5382;42.136;24.796;2022-07-23T07:35:46;99931.91;;;28.77;52.45
10668;BME280;5382;42.136;24.796;2022-07-23T07:38:13;99925.53;;;28.83;50.15
10668;BME280;5382;42.136;24.796;2022-07-23T07:40:41;99919.31;;;28.94;49.01
10668;BME280;5382;42.136;24.796;2022-07-23T07:43:08;99910.81;;;29.02;47.86
10668;BME280;5382;42.136;24.796;2022-07-23T07:45:35;99914.19;;;29.16;49.10
10668;BME280;5382;42.136;24.796;2022-07-23T07:48:01;99918.28;;;29.25;49.89
10668;BME280;5382;42.136;24.796;2022-07-23T07:50:28;99909.38;;;29.30;48.75
10668;BME280;5382;42.136;24.796;2022-07-23T07:52:55;99910.72;;;29.39;49.23
10668;BME280;5382;42.136;24.796;2022-07-23T07:55:22;99913.47;;;29.51;48.05
10668;BME280;5382;42.136;24.796;2022-07-23T07:57:50;99908.44;;;29.66;46.10
10668;BME280;5382;42.136;24.796;2022-07-23T08:00:17;99901.88;;;29.79;44.97
10668;BME280;5382;42.136;24.796;2022-07-23T08:02:46;99887.53;;;29.84;45.96
10668;BME280;5382;42.136;24.796;2022-07-23T08:05:14;99910.56;;;30.11;44.76
10668;BME280;5382;42.136;24.796;2022-07-23T08:07:41;99899.75;;;30.16;43.19
10668;BME280;5382;42.136;24.796;2022-07-23T08:10:09;99895.81;;;30.36;44.88
10668;BME280;5382;42.136;24.796;2022-07-23T08:12:41;99891.31;;;30.41;42.74
10668;BME280;5382;42.136;24.796;2022-07-23T08:15:12;99900.28;;;30.65;42.43
10668;BME280;5382;42.136;24.796;2022-07-23T08:17:39;99897.84;;;30.81;42.36
10668;BME280;5382;42.136;24.796;2022-07-23T08:20:08;99887.16;;;30.91;40.62
10668;BME280;5382;42.136;24.796;2022-07-23T08:22:45;99869.25;;;31.00;40.96
10668;BME280;5382;42.136;24.796;2022-07-23T08:25:12;99865.84;;;31.22;42.24
10668;BME280;5382;42.136;24.796;2022-07-23T08:27:39;99879.63;;;31.44;40.50
10668;BME280;5382;42.136;24.796;2022-07-23T08:30:07;99858.72;;;31.55;40.05
10668;BME280;5382;42.136;24.796;2022-07-23T08:32:49;99869.81;;;31.82;40.42
10668;BME280;5382;42.136;24.796;2022-07-23T08:35:16;99843.88;;;31.84;39.00
10668;BME280;5382;42.136;24.796;2022-07-23T08:37:43;99854.38;;;31.92;38.06
10668;BME280;5382;42.136;24.796;2022-07-23T08:40:12;99859.41;;;32.18;39.18
10668;BME280;5382;42.136;24.796;2022-07-23T08:42:39;99853.72;;;32.24;37.02
10668;BME280;5382;42.136;24.796;2022-07-23T08:45:08;99863.69;;;32.30;35.86
10668;BME280;5382;42.136;24.796;2022-07-23T08:47:36;99855.06;;;32.44;35.53
10668;BME280;5382;42.136;24.796;2022-07-23T08:50:07;99864.09;;;32.61;34.11
10668;BME280;5382;42.136;24.796;2022-07-23T08:52:34;99850.28;;;32.78;34.84
10668;BME280;5382;42.136;24.796;2022-07-23T08:55:01;99846.88;;;32.93;35.28
10668;BME280;5382;42.136;24.796;2022-07-23T08:57:28;99846.38;;;33.23;35.17
10668;BME280;5382;42.136;24.796;2022-07-23T08:59:56;99828.03;;;33.29;33.94
10668;BME280;5382;42.136;24.796;2022-07-23T09:02:22;99829.53;;;33.47;33.56
10668;BME280;5382;42.136;24.796;2022-07-23T09:04:49;99822.25;;;33.62;33.46
10668;BME280;5382;42.136;24.796;2022-07-23T09:07:17;99844.88;;;33.80;33.03
10668;BME280;5382;42.136;24.796;2022-07-23T09:09:44;99809.97;;;33.70;32.76
10668;BME280;5382;42.136;24.796;2022-07-23T09:12:11;99836.56;;;34.12;34.63
10668;BME280;5382;42.136;24.796;2022-07-23T09:14:40;99823.69;;;34.23;36.50
10668;BME280;5382;42.136;24.796;2022-07-23T09:17:11;99835.91;;;34.52;39.35
10668;BME280;5382;42.136;24.796;2022-07-23T09:19:38;99818.03;;;34.50;39.36
10668;BME280;5382;42.136;24.796;2022-07-23T09:22:23;99832.94;;;34.80;38.12
10668;BME280;5382;42.136;24.796;2022-07-23T09:25:11;99834.91;;;34.89;37.50
10668;BME280;5382;42.136;24.796;2022-07-23T09:27:47;99837.94;;;34.78;35.95
10668;BME280;5382;42.136;24.796;2022-07-23T09:30:15;99830.78;;;34.97;34.91
10668;BME280;5382;42.136;24.796;2022-07-23T09:32:42;99828.91;;;35.23;34.90
10668;BME280;5382;42.136;24.796;2022-07-23T09:35:09;99827.81;;;35.39;33.47
10668;BME280;5382;42.136;24.796;2022-07-23T09:37:37;99804.94;;;35.34;32.27
10668;BME280;5382;42.136;24.796;2022-07-23T09:40:05;99819.50;;;35.55;33.03
10668;BME280;5382;42.136;24.796;2022-07-23T09:42:33;99816.19;;;35.84;32.11
10668;BME280;5382;42.136;24.796;2022-07-23T09:45:00;99807.56;;;36.06;33.32
10668;BME280;5382;42.136;24.796;2022-07-23T09:47:29;99808.38;;;36.06;33.05
10668;BME280;5382;42.136;24.796;2022-07-23T09:49:59;99806.22;;;36.08;31.72
10668;BME280;5382;42.136;24.796;2022-07-23T09:52:27;99809.75;;;36.14;29.39
10668;BME280;5382;42.136;24.796;2022-07-23T09:54:59;99789.69;;;35.98;27.51
10668;BME280;5382;42.136;24.796;2022-07-23T09:57:27;99810.09;;;36.07;28.23
10668;BME280;5382;42.136;24.796;2022-07-23T09:59:57;99800.44;;;36.10;29.26
10668;BME280;5382;42.136;24.796;2022-07-23T10:02:25;99796.25;;;36.22;27.44
10668;BME280;5382;42.136;24.796;2022-07-23T10:04:54;99793.88;;;36.55;26.39
10668;BME280;5382;42.136;24.796;2022-07-23T10:07:22;99799.25;;;36.76;26.40
10668;BME280;5382;42.136;24.796;2022-07-23T10:09:50;99791.88;;;37.05;27.76
10668;BME280;5382;42.136;24.796;2022-07-23T10:12:20;99791.75;;;37.21;28.42
10668;BME280;5382;42.136;24.796;2022-07-23T10:14:59;99799.22;;;37.49;28.08
10668;BME280;5382;42.136;24.796;2022-07-23T10:17:27;99785.00;;;37.61;27.04
10668;BME280;5382;42.136;24.796;2022-07-23T10:19:54;99790.53;;;37.61;27.27
10668;BME280;5382;42.136;24.796;2022-07-23T10:22:24;99770.59;;;37.69;26.86
10668;BME280;5382;42.136;24.796;2022-07-23T10:25:02;99744.53;;;37.75;26.45
10668;BME280;5382;42.136;24.796;2022-07-23T10:27:43;99776.69;;;38.14;25.61
10668;BME280;5382;42.136;24.796;2022-07-23T10:30:17;99775.66;;;38.29;24.68
10668;BME280;5382;42.136;24.796;2022-07-23T10:32:54;99753.91;;;38.23;21.59
10668;BME280;5382;42.136;24.796;2022-07-23T10:35:31;99763.84;;;38.24;20.96
10668;BME280;5382;42.136;24.796;2022-07-23T10:38:07;99769.66;;;38.41;20.87
10668;BME280;5382;42.136;24.796;2022-07-23T10:40:34;99767.69;;;38.66;21.20
10668;BME280;5382;42.136;24.796;2022-07-23T10:43:13;99746.72;;;38.97;20.65
10668;BME280;5382;42.136;24.796;2022-07-23T10:45:42;99756.72;;;39.26;20.52
10668;BME280;5382;42.136;24.796;2022-07-23T10:48:14;99740.16;;;39.67;20.58
10668;BME280;5382;42.136;24.796;2022-07-23T10:50:42;99743.41;;;40.25;20.02
10668;BME280;5382;42.136;24.796;2022-07-23T10:53:11;99743.28;;;40.89;19.34
10668;BME280;5382;42.136;24.796;2022-07-23T10:55:41;99739.41;;;40.90;19.36
10668;BME280;5382;42.136;24.796;2022-07-23T10:58:11;99709.19;;;41.11;18.28
10668;BME280;5382;42.136;24.796;2022-07-23T11:00:38;99728.91;;;41.80;18.61
10668;BME280;5382;42.136;24.796;2022-07-23T11:03:27;99714.25;;;42.23;18.43
10668;BME280;5382;42.136;24.796;2022-07-23T11:05:52;99731.44;;;42.95;17.73
10668;BME280;5382;42.136;24.796;2022-07-23T11:08:19;99724.69;;;43.22;16.86
10668;BME280;5382;42.136;24.796;2022-07-23T11:10:49;99713.81;;;43.38;16.48
10668;BME280;5382;42.136;24.796;2022-07-23T11:13:45;99715.69;;;43.85;16.30
10668;BME280;5382;42.136;24.796;2022-07-23T11:16:18;99699.00;;;44.27;15.17
10668;BME280;5382;42.136;24.796;2022-07-23T11:19:05;99713.75;;;44.69;14.99
10668;BME280;5382;42.136;24.796;2022-07-23T11:21:48;99716.19;;;45.04;14.58
10668;BME280;5382;42.136;24.796;2022-07-23T11:24:20;99710.91;;;45.23;14.48
10668;BME280;5382;42.136;24.796;2022-07-23T11:26:53;99704.75;;;44.97;14.17
10668;BME280;5382;42.136;24.796;2022-07-23T11:29:44;99695.91;;;44.82;14.59
10668;BME280;5382;42.136;24.796;2022-07-23T11:32:28;99694.56;;;45.25;14.61
10668;BME280;5382;42.136;24.796;2022-07-23T11:34:56;99694.94;;;45.48;14.81
10668;BME280;5382;42.136;24.796;2022-07-23T11:37:33;99689.44;;;45.03;14.92
10668;BME280;5382;42.136;24.796;2022-07-23T11:40:00;99663.00;;;45.13;16.56
10668;BME280;5382;42.136;24.796;2022-07-23T11:42:28;99685.53;;;45.65;17.03
10668;BME280;5382;42.136;24.796;2022-07-23T11:44:56;99680.28;;;45.27;15.51
10668;BME280;5382;42.136;24.796;2022-07-23T11:47:24;99681.34;;;44.44;15.32
10668;BME280;5382;42.136;24.796;2022-07-23T11:49:55;99680.13;;;43.52;16.75
10668;BME280;5382;42.136;24.796;2022-07-23T11:52:22;99676.25;;;42.97;16.26
10668;BME280;5382;42.136;24.796;2022-07-23T11:54:51;99682.38;;;42.38;16.41
10668;BME280;5382;42.136;24.796;2022-07-23T11:57:19;99675.81;;;42.52;16.95
10668;BME280;5382;42.136;24.796;2022-07-23T11:59:49;99671.22;;;42.64;17.21
10668;BME280;5382;42.136;24.796;2022-07-23T12:02:19;99665.66;;;42.73;16.71
10668;BME280;5382;42.136;24.796;2022-07-23T12:04:49;99662.63;;;43.04;16.66
10668;BME280;5382;42.136;24.796;2022-07-23T12:07:27;99663.41;;;43.13;16.88
10668;BME280;5382;42.136;24.796;2022-07-23T12:09:55;99661.78;;;43.12;16.18
10668;BME280;5382;42.136;24.796;2022-07-23T12:12:23;99654.63;;;43.41;16.71
10668;BME280;5382;42.136;24.796;2022-07-23T12:14:51;99660.47;;;43.78;16.59
10668;BME280;5382;42.136;24.796;2022-07-23T12:17:20;99595.88;;;43.17;15.79
10668;BME280;5382;42.136;24.796;2022-07-23T12:19:47;99659.94;;;43.85;14.50
10668;BME280;5382;42.136;24.796;2022-07-23T12:22:14;99645.28;;;43.37;15.41
10668;BME280;5382;42.136;24.796;2022-07-23T12:24:59;99635.91;;;43.42;15.69
10668;BME280;5382;42.136;24.796;2022-07-23T12:27:27;99628.06;;;43.94;14.74
10668;BME280;5382;42.136;24.796;2022-07-23T12:29:54;99636.25;;;44.54;14.72
10668;BME280;5382;42.136;24.796;2022-07-23T12:32:23;99600.69;;;44.75;14.21
10668;BME280;5382;42.136;24.796;2022-07-23T12:35:03;99635.22;;;45.29;13.51
10668;BME280;5382;42.136;24.796;2022-07-23T12:37:31;99626.69;;;45.49;13.07
10668;BME280;5382;42.136;24.796;2022-07-23T12:39:59;99625.28;;;45.68;14.03
10668;BME280;5382;42.136;24.796;2022-07-23T12:42:45;99613.44;;;45.99;13.75
10668;BME280;5382;42.136;24.796;2022-07-23T12:45:12;99619.75;;;45.96;13.54
10668;BME280;5382;42.136;24.796;2022-07-23T12:47:58;99613.00;;;45.97;13.66
10668;BME280;5382;42.136;24.796;2022-07-23T12:50:41;99588.06;;;45.39;14.91
10668;BME280;5382;42.136;24.796;2022-07-23T12:53:11;99597.22;;;46.05;15.24
10668;BME280;5382;42.136;24.796;2022-07-23T12:55:40;99604.50;;;45.94;14.56
10668;BME280;5382;42.136;24.796;2022-07-23T12:58:10;99603.88;;;45.35;14.08
10668;BME280;5382;42.136;24.796;2022-07-23T13:00:58;99598.41;;;44.11;14.76
10668;BME280;5382;42.136;24.796;2022-07-23T13:03:32;99589.78;;;43.62;15.37
10668;BME280;5382;42.136;24.796;2022-07-23T13:06:01;99584.69;;;43.34;15.67
10668;BME280;5382;42.136;24.796;2022-07-23T13:08:29;99594.59;;;44.15;16.19